sensor_id;sensor_type;location;lat;lon;timestamp;P1;durP1;ratioP1;P2;durP2;ratioP2
63018;SDS011;49105;46.046;10.760;2023-04-16T00:01:40;1.95;;;1.95;;
63018;SDS011;49105;46.046;10.760;2023-04-16T00:04:05;2.30;;;2.30;;
63018;SDS011;49105;46.046;10.760;2023-04-16T00:06:40;2.20;;;2.20;;
63018;SDS011;49105;46.046;10.760;2023-04-16T00:09:08;2.30;;;2.30;;
63018;SDS011;49105;46.046;10.760;2023-04-16T00:11:43;2.30;;;2.30;;
63018;SDS011;49105;46.046;10.760;2023-04-16T00:14:09;2.17;;;2.17;;
63018;SDS011;49105;46.046;10.760;2023-04-16T00:16:43;2.15;;;2.15;;
63018;SDS011;49105;46.046;10.760;2023-04-16T00:19:09;2.10;;;2.10;;
63018;SDS011;49105;46.046;10.760;2023-04-16T00:21:40;2.10;;;2.10;;
63018;SDS011;49105;46.046;10.760;2023-04-16T00:24:12;2.30;;;2.30;;
63018;SDS011;49105;46.046;10.760;2023-04-16T00:26:46;2.85;;;2.75;;
63018;SDS011;49105;46.046;10.760;2023-04-16T00:29:21;2.25;;;2.25;;
63018;SDS011;49105;46.046;10.760;2023-04-16T00:31:46;2.05;;;2.05;;
63018;SDS011;49105;46.046;10.760;2023-04-16T00:34:24;1.83;;;1.83;;
63018;SDS011;49105;46.046;10.760;2023-04-16T00:36:59;2.30;;;2.30;;
63018;SDS011;49105;46.046;10.760;2023-04-16T00:39:30;2.35;;;2.35;;
63018;SDS011;49105;46.046;10.760;2023-04-16T00:42:00;2.28;;;2.28;;
63018;SDS011;49105;46.046;10.760;2023-04-16T00:44:32;2.90;;;2.80;;
63018;SDS011;49105;46.046;10.760;2023-04-16T00:47:06;2.88;;;2.78;;
63018;SDS011;49105;46.046;10.760;2023-04-16T00:49:37;2.47;;;2.47;;
63018;SDS011;49105;46.046;10.760;2023-04-16T00:52:03;2.20;;;2.20;;
63018;SDS011;49105;46.046;10.760;2023-04-16T00:54:38;2.28;;;2.28;;
63018;SDS011;49105;46.046;10.760;2023-04-16T00:57:13;2.15;;;2.15;;
63018;SDS011;49105;46.046;10.760;2023-04-16T00:59:51;2.20;;;2.20;;
63018;SDS011;49105;46.046;10.760;2023-04-16T01:02:21;2.50;;;2.50;;
63018;SDS011;49105;46.046;10.760;2023-04-16T01:04:46;2.45;;;2.45;;
63018;SDS011;49105;46.046;10.760;2023-04-16T01:10:34;2.50;;;2.50;;
63018;SDS011;49105;46.046;10.760;2023-04-16T01:13:08;2.20;;;2.20;;
63018;SDS011;49105;46.046;10.760;2023-04-16T01:15:34;2.35;;;2.35;;
63018;SDS011;49105;46.046;10.760;2023-04-16T01:18:11;2.85;;;2.75;;
63018;SDS011;49105;46.046;10.760;2023-04-16T01:20:40;2.30;;;2.30;;
63018;SDS011;49105;46.046;10.760;2023-04-16T01:23:11;2.65;;;2.63;;
63018;SDS011;49105;46.046;10.760;2023-04-16T01:25:46;2.58;;;2.58;;
63018;SDS011;49105;46.046;10.760;2023-04-16T01:28:18;2.85;;;2.75;;
63018;SDS011;49105;46.046;10.760;2023-04-16T01:30:52;2.60;;;2.60;;
63018;SDS011;49105;46.046;10.760;2023-04-16T01:33:24;2.53;;;2.53;;
63018;SDS011;49105;46.046;10.760;2023-04-16T01:35:52;3.08;;;2.97;;
63018;SDS011;49105;46.046;10.760;2023-04-16T01:38:18;2.72;;;2.67;;
63018;SDS011;49105;46.046;10.760;2023-04-16T01:40:54;2.60;;;2.60;;
63018;SDS011;49105;46.046;10.760;2023-04-16T01:43:20;2.60;;;2.60;;
63018;SDS011;49105;46.046;10.760;2023-04-16T01:45:58;1.85;;;1.85;;
63018;SDS011;49105;46.046;10.760;2023-04-16T01:48:42;2.10;;;2.10;;
63018;SDS011;49105;46.046;10.760;2023-04-16T01:51:08;2.30;;;2.30;;
63018;SDS011;49105;46.046;10.760;2023-04-16T01:53:46;2.10;;;2.10;;
63018;SDS011;49105;46.046;10.760;2023-04-16T01:56:20;2.08;;;2.08;;
63018;SDS011;49105;46.046;10.760;2023-04-16T01:58:46;2.10;;;2.10;;
63018;SDS011;49105;46.046;10.760;2023-04-16T02:01:17;2.15;;;2.15;;
63018;SDS011;49105;46.046;10.760;2023-04-16T02:03:52;2.40;;;2.40;;
63018;SDS011;49105;46.046;10.760;2023-04-16T02:06:23;2.17;;;2.17;;
63018;SDS011;49105;46.046;10.760;2023-04-16T02:08:59;2.22;;;2.22;;
63018;SDS011;49105;46.046;10.760;2023-04-16T02:11:33;2.20;;;2.20;;
63018;SDS011;49105;46.046;10.760;2023-04-16T02:14:05;2.30;;;2.30;;
63018;SDS011;49105;46.046;10.760;2023-04-16T02:16:42;2.50;;;2.50;;
63018;SDS011;49105;46.046;10.760;2023-04-16T02:19:08;2.70;;;2.60;;
63018;SDS011;49105;46.046;10.760;2023-04-16T02:21:33;2.10;;;2.10;;
63018;SDS011;49105;46.046;10.760;2023-04-16T02:24:02;2.40;;;2.40;;
63018;SDS011;49105;46.046;10.760;2023-04-16T02:26:27;2.60;;;2.60;;
63018;SDS011;49105;46.046;10.760;2023-04-16T02:29:02;2.90;;;2.80;;
63018;SDS011;49105;46.046;10.760;2023-04-16T02:31:31;2.38;;;2.38;;
63018;SDS011;49105;46.046;10.760;2023-04-16T02:33:56;2.30;;;2.30;;
63018;SDS011;49105;46.046;10.760;2023-04-16T02:36:28;1.92;;;1.92;;
63018;SDS011;49105;46.046;10.760;2023-04-16T02:39:00;2.20;;;2.20;;
63018;SDS011;49105;46.046;10.760;2023-04-16T02:41:34;2.15;;;2.15;;
63018;SDS011;49105;46.046;10.760;2023-04-16T02:47:31;2.45;;;2.45;;
63018;SDS011;49105;46.046;10.760;2023-04-16T02:50:03;2.30;;;2.30;;
63018;SDS011;49105;46.046;10.760;2023-04-16T02:52:34;2.10;;;2.10;;
63018;SDS011;49105;46.046;10.760;2023-04-16T02:55:00;2.40;;;2.38;;
63018;SDS011;49105;46.046;10.760;2023-04-16T02:57:26;2.20;;;2.20;;
63018;SDS011;49105;46.046;10.760;2023-04-16T02:59:52;2.13;;;2.13;;
63018;SDS011;49105;46.046;10.760;2023-04-16T03:02:23;1.92;;;1.92;;
63018;SDS011;49105;46.046;10.760;2023-04-16T03:07:15;2.55;;;2.55;;
63018;SDS011;49105;46.046;10.760;2023-04-16T03:09:48;2.40;;;2.40;;
63018;SDS011;49105;46.046;10.760;2023-04-16T03:12:13;2.30;;;2.30;;
63018;SDS011;49105;46.046;10.760;2023-04-16T03:14:39;2.33;;;2.33;;
63018;SDS011;49105;46.046;10.760;2023-04-16T03:17:07;2.17;;;2.17;;
63018;SDS011;49105;46.046;10.760;2023-04-16T03:19:33;2.00;;;2.00;;
63018;SDS011;49105;46.046;10.760;2023-04-16T03:22:04;2.25;;;2.25;;
63018;SDS011;49105;46.046;10.760;2023-04-16T03:24:38;2.35;;;2.35;;
63018;SDS011;49105;46.046;10.760;2023-04-16T03:27:16;2.63;;;2.60;;
63018;SDS011;49105;46.046;10.760;2023-04-16T03:29:51;2.30;;;2.30;;
63018;SDS011;49105;46.046;10.760;2023-04-16T03:32:16;2.40;;;2.40;;
63018;SDS011;49105;46.046;10.760;2023-04-16T03:34:45;2.50;;;2.50;;
63018;SDS011;49105;46.046;10.760;2023-04-16T03:37:10;2.17;;;2.17;;
63018;SDS011;49105;46.046;10.760;2023-04-16T03:39:39;2.45;;;2.35;;
63018;SDS011;49105;46.046;10.760;2023-04-16T03:42:10;2.30;;;2.30;;
63018;SDS011;49105;46.046;10.760;2023-04-16T03:44:42;2.53;;;2.53;;
63018;SDS011;49105;46.046;10.760;2023-04-16T03:47:07;2.67;;;2.65;;
63018;SDS011;49105;46.046;10.760;2023-04-16T03:49:41;2.40;;;2.40;;
63018;SDS011;49105;46.046;10.760;2023-04-16T03:52:19;2.10;;;2.10;;
63018;SDS011;49105;46.046;10.760;2023-04-16T03:54:54;2.10;;;2.10;;
63018;SDS011;49105;46.046;10.760;2023-04-16T03:57:20;2.40;;;2.40;;
63018;SDS011;49105;46.046;10.760;2023-04-16T03:59:51;2.60;;;2.60;;
63018;SDS011;49105;46.046;10.760;2023-04-16T04:02:16;2.38;;;2.38;;
63018;SDS011;49105;46.046;10.760;2023-04-16T04:04:42;2.22;;;2.22;;
63018;SDS011;49105;46.046;10.760;2023-04-16T04:07:07;2.20;;;2.20;;
63018;SDS011;49105;46.046;10.760;2023-04-16T04:09:38;2.10;;;2.10;;
63018;SDS011;49105;46.046;10.760;2023-04-16T04:12:16;2.42;;;2.42;;
63018;SDS011;49105;46.046;10.760;2023-04-16T04:14:48;2.47;;;2.47;;
63018;SDS011;49105;46.046;10.760;2023-04-16T04:17:13;2.35;;;2.35;;
63018;SDS011;49105;46.046;10.760;2023-04-16T04:19:51;2.20;;;2.20;;
63018;SDS011;49105;46.046;10.760;2023-04-16T04:22:36;2.20;;;2.20;;
63018;SDS011;49105;46.046;10.760;2023-04-16T04:25:08;2.88;;;2.78;;
63018;SDS011;49105;46.046;10.760;2023-04-16T04:27:43;2.63;;;2.63;;
63018;SDS011;49105;46.046;10.760;2023-04-16T04:30:15;2.10;;;2.10;;
63018;SDS011;49105;46.046;10.760;2023-04-16T04:32:50;2.20;;;2.20;;
63018;SDS011;49105;46.046;10.760;2023-04-16T04:35:24;2.30;;;2.30;;
63018;SDS011;49105;46.046;10.760;2023-04-16T04:37:50;2.38;;;2.38;;
63018;SDS011;49105;46.046;10.760;2023-04-16T04:40:21;2.40;;;2.40;;
63018;SDS011;49105;46.046;10.760;2023-04-16T04:42:47;2.42;;;2.42;;
63018;SDS011;49105;46.046;10.760;2023-04-16T04:45:21;2.30;;;2.30;;
63018;SDS011;49105;46.046;10.760;2023-04-16T04:47:51;2.40;;;2.40;;
63018;SDS011;49105;46.046;10.760;2023-04-16T04:50:22;2.40;;;2.40;;
63018;SDS011;49105;46.046;10.760;2023-04-16T04:52:55;2.50;;;2.50;;
63018;SDS011;49105;46.046;10.760;2023-04-16T04:55:21;2.40;;;2.40;;
63018;SDS011;49105;46.046;10.760;2023-04-16T04:57:55;2.58;;;2.58;;
63018;SDS011;49105;46.046;10.760;2023-04-16T05:00:27;2.45;;;2.45;;
63018;SDS011;49105;46.046;10.760;2023-04-16T05:03:05;2.38;;;2.38;;
63018;SDS011;49105;46.046;10.760;2023-04-16T05:05:39;2.30;;;2.30;;
63018;SDS011;49105;46.046;10.760;2023-04-16T05:08:05;2.38;;;2.38;;
63018;SDS011;49105;46.046;10.760;2023-04-16T05:10:43;2.38;;;2.38;;
63018;SDS011;49105;46.046;10.760;2023-04-16T05:13:18;2.22;;;2.22;;
63018;SDS011;49105;46.046;10.760;2023-04-16T05:15:43;2.45;;;2.45;;
63018;SDS011;49105;46.046;10.760;2023-04-16T05:18:15;2.22;;;2.22;;
63018;SDS011;49105;46.046;10.760;2023-04-16T05:20:41;2.40;;;2.40;;
63018;SDS011;49105;46.046;10.760;2023-04-16T05:23:16;2.00;;;2.00;;
63018;SDS011;49105;46.046;10.760;2023-04-16T05:25:41;2.13;;;2.13;;
63018;SDS011;49105;46.046;10.760;2023-04-16T05:28:13;2.20;;;2.20;;
63018;SDS011;49105;46.046;10.760;2023-04-16T05:30:38;2.28;;;2.28;;
63018;SDS011;49105;46.046;10.760;2023-04-16T05:33:12;3.00;;;2.90;;
63018;SDS011;49105;46.046;10.760;2023-04-16T05:35:47;2.20;;;2.20;;
63018;SDS011;49105;46.046;10.760;2023-04-16T05:38:13;2.20;;;2.20;;
63018;SDS011;49105;46.046;10.760;2023-04-16T05:40:45;2.13;;;2.13;;
63018;SDS011;49105;46.046;10.760;2023-04-16T05:43:17;2.92;;;2.83;;
63018;SDS011;49105;46.046;10.760;2023-04-16T05:45:52;2.63;;;2.63;;
63018;SDS011;49105;46.046;10.760;2023-04-16T05:48:23;2.63;;;2.63;;
63018;SDS011;49105;46.046;10.760;2023-04-16T05:50:52;2.60;;;2.60;;
63018;SDS011;49105;46.046;10.760;2023-04-16T05:53:17;2.33;;;2.33;;
63018;SDS011;49105;46.046;10.760;2023-04-16T05:55:43;2.40;;;2.40;;
63018;SDS011;49105;46.046;10.760;2023-04-16T06:01:28;2.60;;;2.60;;
63018;SDS011;49105;46.046;10.760;2023-04-16T06:03:54;2.38;;;2.38;;
63018;SDS011;49105;46.046;10.760;2023-04-16T06:06:28;2.70;;;2.67;;
63018;SDS011;49105;46.046;10.760;2023-04-16T06:08:56;12.40;;;5.82;;
63018;SDS011;49105;46.046;10.760;2023-04-16T06:11:22;2.15;;;2.15;;
63018;SDS011;49105;46.046;10.760;2023-04-16T06:13:58;2.10;;;2.10;;
63018;SDS011;49105;46.046;10.760;2023-04-16T06:16:32;2.30;;;2.30;;
63018;SDS011;49105;46.046;10.760;2023-04-16T06:19:01;2.88;;;2.78;;
63018;SDS011;49105;46.046;10.760;2023-04-16T06:21:27;2.22;;;2.22;;
63018;SDS011;49105;46.046;10.760;2023-04-16T06:23:59;2.20;;;2.20;;
63018;SDS011;49105;46.046;10.760;2023-04-16T06:26:37;2.50;;;2.40;;
63018;SDS011;49105;46.046;10.760;2023-04-16T06:29:03;2.25;;;2.25;;
63018;SDS011;49105;46.046;10.760;2023-04-16T06:31:37;2.10;;;2.10;;
63018;SDS011;49105;46.046;10.760;2023-04-16T06:34:03;2.40;;;2.40;;
63018;SDS011;49105;46.046;10.760;2023-04-16T06:36:31;2.10;;;2.10;;
63018;SDS011;49105;46.046;10.760;2023-04-16T06:39:04;2.30;;;2.30;;
63018;SDS011;49105;46.046;10.760;2023-04-16T06:41:36;1.95;;;1.95;;
63018;SDS011;49105;46.046;10.760;2023-04-16T06:46:44;2.13;;;2.13;;
63018;SDS011;49105;46.046;10.760;2023-04-16T06:49:19;2.00;;;2.00;;
63018;SDS011;49105;46.046;10.760;2023-04-16T06:51:46;1.90;;;1.90;;
63018;SDS011;49105;46.046;10.760;2023-04-16T06:54:11;2.70;;;2.60;;
63018;SDS011;49105;46.046;10.760;2023-04-16T06:56:46;2.40;;;2.40;;
63018;SDS011;49105;46.046;10.760;2023-04-16T06:59:20;4.05;;;3.65;;
63018;SDS011;49105;46.046;10.760;2023-04-16T07:01:49;1.90;;;1.90;;
63018;SDS011;49105;46.046;10.760;2023-04-16T07:04:16;1.83;;;1.83;;
63018;SDS011;49105;46.046;10.760;2023-04-16T07:06:47;2.05;;;2.05;;
63018;SDS011;49105;46.046;10.760;2023-04-16T07:09:16;2.25;;;2.20;;
63018;SDS011;49105;46.046;10.760;2023-04-16T07:11:53;2.05;;;2.05;;
63018;SDS011;49105;46.046;10.760;2023-04-16T07:14:29;1.98;;;1.98;;
63018;SDS011;49105;46.046;10.760;2023-04-16T07:17:03;1.90;;;1.90;;
63018;SDS011;49105;46.046;10.760;2023-04-16T07:19:35;1.80;;;1.80;;
63018;SDS011;49105;46.046;10.760;2023-04-16T07:22:04;1.88;;;1.88;;
63018;SDS011;49105;46.046;10.760;2023-04-16T07:24:29;1.67;;;1.67;;
63018;SDS011;49105;46.046;10.760;2023-04-16T07:27:04;2.05;;;2.05;;
63018;SDS011;49105;46.046;10.760;2023-04-16T07:29:39;2.67;;;2.47;;
63018;SDS011;49105;46.046;10.760;2023-04-16T07:32:08;1.90;;;1.90;;
63018;SDS011;49105;46.046;10.760;2023-04-16T07:37:39;1.70;;;1.70;;
63018;SDS011;49105;46.046;10.760;2023-04-16T07:40:06;1.70;;;1.70;;
63018;SDS011;49105;46.046;10.760;2023-04-16T07:42:32;2.10;;;2.10;;
63018;SDS011;49105;46.046;10.760;2023-04-16T07:44:57;2.38;;;1.83;;
63018;SDS011;49105;46.046;10.760;2023-04-16T07:47:23;1.65;;;1.65;;
63018;SDS011;49105;46.046;10.760;2023-04-16T07:49:59;1.80;;;1.80;;
63018;SDS011;49105;46.046;10.760;2023-04-16T07:52:34;1.83;;;1.83;;
63018;SDS011;49105;46.046;10.760;2023-04-16T07:55:07;1.85;;;1.85;;
63018;SDS011;49105;46.046;10.760;2023-04-16T07:57:33;1.77;;;1.77;;
63018;SDS011;49105;46.046;10.760;2023-04-16T08:00:08;2.65;;;2.55;;
63018;SDS011;49105;46.046;10.760;2023-04-16T08:02:41;1.70;;;1.70;;
63018;SDS011;49105;46.046;10.760;2023-04-16T08:05:07;1.65;;;1.65;;
63018;SDS011;49105;46.046;10.760;2023-04-16T08:07:42;1.80;;;1.80;;
63018;SDS011;49105;46.046;10.760;2023-04-16T08:10:17;2.08;;;2.08;;
63018;SDS011;49105;46.046;10.760;2023-04-16T08:12:52;1.70;;;1.70;;
63018;SDS011;49105;46.046;10.760;2023-04-16T08:15:20;1.75;;;1.75;;
63018;SDS011;49105;46.046;10.760;2023-04-16T08:17:52;1.60;;;1.60;;
63018;SDS011;49105;46.046;10.760;2023-04-16T08:20:27;1.80;;;1.80;;
63018;SDS011;49105;46.046;10.760;2023-04-16T08:22:53;1.70;;;1.70;;
63018;SDS011;49105;46.046;10.760;2023-04-16T08:25:26;1.75;;;1.75;;
63018;SDS011;49105;46.046;10.760;2023-04-16T08:30:28;1.60;;;1.60;;
63018;SDS011;49105;46.046;10.760;2023-04-16T08:33:00;1.60;;;1.60;;
63018;SDS011;49105;46.046;10.760;2023-04-16T08:35:26;1.65;;;1.65;;
63018;SDS011;49105;46.046;10.760;2023-04-16T08:38:01;1.67;;;1.67;;
63018;SDS011;49105;46.046;10.760;2023-04-16T08:40:37;1.83;;;1.83;;
63018;SDS011;49105;46.046;10.760;2023-04-16T08:43:14;1.40;;;1.40;;
63018;SDS011;49105;46.046;10.760;2023-04-16T08:45:52;2.00;;;2.00;;
63018;SDS011;49105;46.046;10.760;2023-04-16T08:48:31;1.70;;;1.70;;
63018;SDS011;49105;46.046;10.760;2023-04-16T08:50:59;1.85;;;1.85;;
63018;SDS011;49105;46.046;10.760;2023-04-16T08:53:32;1.80;;;1.80;;
63018;SDS011;49105;46.046;10.760;2023-04-16T08:56:13;1.70;;;1.70;;
63018;SDS011;49105;46.046;10.760;2023-04-16T08:58:46;1.75;;;1.75;;
63018;SDS011;49105;46.046;10.760;2023-04-16T09:01:17;1.77;;;1.77;;
63018;SDS011;49105;46.046;10.760;2023-04-16T09:03:46;1.60;;;1.60;;
63018;SDS011;49105;46.046;10.760;2023-04-16T09:06:16;1.65;;;1.65;;
63018;SDS011;49105;46.046;10.760;2023-04-16T09:12:07;1.77;;;1.77;;
63018;SDS011;49105;46.046;10.760;2023-04-16T09:14:39;1.65;;;1.65;;
63018;SDS011;49105;46.046;10.760;2023-04-16T09:17:10;1.65;;;1.65;;
63018;SDS011;49105;46.046;10.760;2023-04-16T09:19:44;1.80;;;1.80;;
63018;SDS011;49105;46.046;10.760;2023-04-16T09:22:17;1.80;;;1.80;;
63018;SDS011;49105;46.046;10.760;2023-04-16T09:24:45;1.60;;;1.60;;
63018;SDS011;49105;46.046;10.760;2023-04-16T09:27:11;1.70;;;1.70;;
63018;SDS011;49105;46.046;10.760;2023-04-16T09:29:38;1.52;;;1.52;;
63018;SDS011;49105;46.046;10.760;2023-04-16T09:32:14;1.52;;;1.52;;
63018;SDS011;49105;46.046;10.760;2023-04-16T09:34:59;1.70;;;1.70;;
63018;SDS011;49105;46.046;10.760;2023-04-16T09:37:34;1.73;;;1.73;;
63018;SDS011;49105;46.046;10.760;2023-04-16T09:40:09;1.70;;;1.70;;
63018;SDS011;49105;46.046;10.760;2023-04-16T09:42:41;1.80;;;1.80;;
63018;SDS011;49105;46.046;10.760;2023-04-16T09:45:12;1.60;;;1.60;;
63018;SDS011;49105;46.046;10.760;2023-04-16T09:47:39;2.03;;;1.92;;
63018;SDS011;49105;46.046;10.760;2023-04-16T09:50:16;1.60;;;1.60;;
63018;SDS011;49105;46.046;10.760;2023-04-16T09:52:49;1.60;;;1.60;;
63018;SDS011;49105;46.046;10.760;2023-04-16T09:55:27;1.70;;;1.70;;
63018;SDS011;49105;46.046;10.760;2023-04-16T09:57:59;1.70;;;1.70;;
63018;SDS011;49105;46.046;10.760;2023-04-16T10:00:25;1.50;;;1.50;;
63018;SDS011;49105;46.046;10.760;2023-04-16T10:03:03;1.60;;;1.60;;
63018;SDS011;49105;46.046;10.760;2023-04-16T10:05:35;1.50;;;1.50;;
63018;SDS011;49105;46.046;10.760;2023-04-16T10:08:01;1.30;;;1.30;;
63018;SDS011;49105;46.046;10.760;2023-04-16T10:10:36;1.40;;;1.40;;
63018;SDS011;49105;46.046;10.760;2023-04-16T10:13:02;1.50;;;1.50;;
63018;SDS011;49105;46.046;10.760;2023-04-16T10:15:35;1.60;;;1.60;;
63018;SDS011;49105;46.046;10.760;2023-04-16T10:18:00;1.92;;;1.92;;
63018;SDS011;49105;46.046;10.760;2023-04-16T10:20:33;1.90;;;1.90;;
63018;SDS011;49105;46.046;10.760;2023-04-16T10:23:08;1.65;;;1.50;;
63018;SDS011;49105;46.046;10.760;2023-04-16T10:25:41;1.60;;;1.60;;
63018;SDS011;49105;46.046;10.760;2023-04-16T10:28:16;1.70;;;1.70;;
63018;SDS011;49105;46.046;10.760;2023-04-16T10:30:48;1.60;;;1.60;;
63018;SDS011;49105;46.046;10.760;2023-04-16T10:33:26;1.50;;;1.50;;
63018;SDS011;49105;46.046;10.760;2023-04-16T10:36:09;1.63;;;1.63;;
63018;SDS011;49105;46.046;10.760;2023-04-16T10:38:40;1.83;;;1.83;;
63018;SDS011;49105;46.046;10.760;2023-04-16T10:41:09;1.60;;;1.60;;
63018;SDS011;49105;46.046;10.760;2023-04-16T10:43:46;1.50;;;1.50;;
63018;SDS011;49105;46.046;10.760;2023-04-16T10:54:28;2.15;;;2.08;;
63018;SDS011;49105;46.046;10.760;2023-04-16T10:56:56;1.85;;;1.83;;
63018;SDS011;49105;46.046;10.760;2023-04-16T10:59:22;1.67;;;1.67;;
63018;SDS011;49105;46.046;10.760;2023-04-16T11:01:58;1.85;;;1.85;;
63018;SDS011;49105;46.046;10.760;2023-04-16T11:04:32;1.60;;;1.60;;
63018;SDS011;49105;46.046;10.760;2023-04-16T11:12:29;1.60;;;1.60;;
63018;SDS011;49105;46.046;10.760;2023-04-16T11:15:08;1.90;;;1.80;;
63018;SDS011;49105;46.046;10.760;2023-04-16T11:17:50;1.63;;;1.63;;
63018;SDS011;49105;46.046;10.760;2023-04-16T11:20:26;1.42;;;1.42;;
63018;SDS011;49105;46.046;10.760;2023-04-16T11:22:58;8.07;;;1.70;;
63018;SDS011;49105;46.046;10.760;2023-04-16T11:25:33;1.40;;;1.40;;
63018;SDS011;49105;46.046;10.760;2023-04-16T11:27:58;1.60;;;1.60;;
63018;SDS011;49105;46.046;10.760;2023-04-16T11:30:30;1.40;;;1.40;;
63018;SDS011;49105;46.046;10.760;2023-04-16T11:32:58;1.92;;;1.92;;
63018;SDS011;49105;46.046;10.760;2023-04-16T11:35:27;1.42;;;1.42;;
63018;SDS011;49105;46.046;10.760;2023-04-16T11:37:59;1.40;;;1.40;;
63018;SDS011;49105;46.046;10.760;2023-04-16T11:40:31;1.30;;;1.30;;
63018;SDS011;49105;46.046;10.760;2023-04-16T11:43:15;1.45;;;1.45;;
63018;SDS011;49105;46.046;10.760;2023-04-16T11:45:57;1.50;;;1.50;;
63018;SDS011;49105;46.046;10.760;2023-04-16T11:48:48;1.40;;;1.40;;
63018;SDS011;49105;46.046;10.760;2023-04-16T11:51:15;1.60;;;1.60;;
63018;SDS011;49105;46.046;10.760;2023-04-16T11:53:53;1.60;;;1.60;;
63018;SDS011;49105;46.046;10.760;2023-04-16T11:56:29;1.70;;;1.70;;
63018;SDS011;49105;46.046;10.760;2023-04-16T12:01:41;1.58;;;1.58;;
63018;SDS011;49105;46.046;10.760;2023-04-16T12:04:20;1.90;;;1.90;;
63018;SDS011;49105;46.046;10.760;2023-04-16T12:07:04;1.50;;;1.50;;
63018;SDS011;49105;46.046;10.760;2023-04-16T12:09:42;1.48;;;1.48;;
63018;SDS011;49105;46.046;10.760;2023-04-16T12:12:26;1.60;;;1.60;;
63018;SDS011;49105;46.046;10.760;2023-04-16T12:15:06;1.40;;;1.40;;
63018;SDS011;49105;46.046;10.760;2023-04-16T12:17:33;1.50;;;1.50;;
63018;SDS011;49105;46.046;10.760;2023-04-16T12:25:55;1.60;;;1.60;;
63018;SDS011;49105;46.046;10.760;2023-04-16T12:28:35;1.65;;;1.65;;
63018;SDS011;49105;46.046;10.760;2023-04-16T12:31:11;1.50;;;1.50;;
63018;SDS011;49105;46.046;10.760;2023-04-16T12:36:35;1.50;;;1.50;;
63018;SDS011;49105;46.046;10.760;2023-04-16T12:39:00;1.60;;;1.60;;
63018;SDS011;49105;46.046;10.760;2023-04-16T12:41:28;1.60;;;1.60;;
63018;SDS011;49105;46.046;10.760;2023-04-16T12:46:54;1.50;;;1.50;;
63018;SDS011;49105;46.046;10.760;2023-04-16T12:49:20;1.60;;;1.60;;
63018;SDS011;49105;46.046;10.760;2023-04-16T12:51:45;1.70;;;1.70;;
63018;SDS011;49105;46.046;10.760;2023-04-16T12:54:11;1.40;;;1.40;;
63018;SDS011;49105;46.046;10.760;2023-04-16T12:56:45;1.55;;;1.55;;
63018;SDS011;49105;46.046;10.760;2023-04-16T12:59:11;1.50;;;1.50;;
63018;SDS011;49105;46.046;10.760;2023-04-16T13:01:36;1.70;;;1.70;;
63018;SDS011;49105;46.046;10.760;2023-04-16T13:04:02;1.63;;;1.63;;
63018;SDS011;49105;46.046;10.760;2023-04-16T13:06:28;1.60;;;1.60;;
63018;SDS011;49105;46.046;10.760;2023-04-16T13:08:57;1.70;;;1.70;;
63018;SDS011;49105;46.046;10.760;2023-04-16T13:11:24;1.48;;;1.48;;
63018;SDS011;49105;46.046;10.760;2023-04-16T13:13:49;1.50;;;1.50;;
63018;SDS011;49105;46.046;10.760;2023-04-16T13:16:15;1.52;;;1.52;;
63018;SDS011;49105;46.046;10.760;2023-04-16T13:18:40;1.67;;;1.67;;
63018;SDS011;49105;46.046;10.760;2023-04-16T13:21:06;1.60;;;1.60;;
63018;SDS011;49105;46.046;10.760;2023-04-16T13:23:33;1.77;;;1.77;;
63018;SDS011;49105;46.046;10.760;2023-04-16T13:25:58;1.65;;;1.65;;
63018;SDS011;49105;46.046;10.760;2023-04-16T13:28:24;1.60;;;1.60;;
63018;SDS011;49105;46.046;10.760;2023-04-16T13:30:50;1.40;;;1.40;;
63018;SDS011;49105;46.046;10.760;2023-04-16T13:33:16;1.40;;;1.40;;
63018;SDS011;49105;46.046;10.760;2023-04-16T13:35:41;1.45;;;1.45;;
63018;SDS011;49105;46.046;10.760;2023-04-16T13:38:07;1.40;;;1.40;;
63018;SDS011;49105;46.046;10.760;2023-04-16T13:40:32;1.40;;;1.40;;
63018;SDS011;49105;46.046;10.760;2023-04-16T13:42:58;1.50;;;1.50;;
63018;SDS011;49105;46.046;10.760;2023-04-16T13:45:24;1.98;;;1.98;;
63018;SDS011;49105;46.046;10.760;2023-04-16T13:47:51;1.33;;;1.33;;
63018;SDS011;49105;46.046;10.760;2023-04-16T13:50:18;1.70;;;1.70;;
63018;SDS011;49105;46.046;10.760;2023-04-16T13:52:43;1.77;;;1.77;;
63018;SDS011;49105;46.046;10.760;2023-04-16T13:55:09;1.65;;;1.65;;
63018;SDS011;49105;46.046;10.760;2023-04-16T13:57:37;1.67;;;1.65;;
63018;SDS011;49105;46.046;10.760;2023-04-16T14:00:03;1.60;;;1.60;;
63018;SDS011;49105;46.046;10.760;2023-04-16T14:02:29;1.70;;;1.70;;
63018;SDS011;49105;46.046;10.760;2023-04-16T14:04:55;1.50;;;1.50;;
63018;SDS011;49105;46.046;10.760;2023-04-16T14:07:20;1.73;;;1.73;;
63018;SDS011;49105;46.046;10.760;2023-04-16T14:09:49;3.13;;;1.55;;
63018;SDS011;49105;46.046;10.760;2023-04-16T14:12:17;1.50;;;1.50;;
63018;SDS011;49105;46.046;10.760;2023-04-16T14:14:44;1.55;;;1.55;;
63018;SDS011;49105;46.046;10.760;2023-04-16T14:17:10;1.40;;;1.40;;
63018;SDS011;49105;46.046;10.760;2023-04-16T14:19:36;1.58;;;1.58;;
63018;SDS011;49105;46.046;10.760;2023-04-16T14:22:05;1.50;;;1.50;;
63018;SDS011;49105;46.046;10.760;2023-04-16T14:24:33;1.45;;;1.45;;
63018;SDS011;49105;46.046;10.760;2023-04-16T14:26:59;1.50;;;1.50;;
63018;SDS011;49105;46.046;10.760;2023-04-16T14:29:24;1.40;;;1.40;;
63018;SDS011;49105;46.046;10.760;2023-04-16T14:31:53;1.40;;;1.40;;
63018;SDS011;49105;46.046;10.760;2023-04-16T14:34:25;1.40;;;1.40;;
63018;SDS011;49105;46.046;10.760;2023-04-16T14:39:28;1.40;;;1.40;;
63018;SDS011;49105;46.046;10.760;2023-04-16T14:41:54;1.70;;;1.70;;
63018;SDS011;49105;46.046;10.760;2023-04-16T14:44:32;1.40;;;1.40;;
63018;SDS011;49105;46.046;10.760;2023-04-16T14:46:57;1.60;;;1.60;;
63018;SDS011;49105;46.046;10.760;2023-04-16T14:49:24;1.50;;;1.50;;
63018;SDS011;49105;46.046;10.760;2023-04-16T14:51:50;1.80;;;1.80;;
63018;SDS011;49105;46.046;10.760;2023-04-16T14:54:16;1.52;;;1.52;;
63018;SDS011;49105;46.046;10.760;2023-04-16T14:56:49;1.92;;;1.85;;
63018;SDS011;49105;46.046;10.760;2023-04-16T14:59:15;1.83;;;1.73;;
63018;SDS011;49105;46.046;10.760;2023-04-16T15:01:49;1.60;;;1.60;;
63018;SDS011;49105;46.046;10.760;2023-04-16T15:04:19;1.80;;;1.80;;
63018;SDS011;49105;46.046;10.760;2023-04-16T15:06:45;1.73;;;1.73;;
63018;SDS011;49105;46.046;10.760;2023-04-16T15:09:16;1.60;;;1.60;;
63018;SDS011;49105;46.046;10.760;2023-04-16T15:11:43;1.40;;;1.40;;
63018;SDS011;49105;46.046;10.760;2023-04-16T15:14:09;1.38;;;1.38;;
63018;SDS011;49105;46.046;10.760;2023-04-16T15:16:34;1.63;;;1.63;;
63018;SDS011;49105;46.046;10.760;2023-04-16T15:19:09;1.33;;;1.33;;
63018;SDS011;49105;46.046;10.760;2023-04-16T15:21:35;1.45;;;1.45;;
63018;SDS011;49105;46.046;10.760;2023-04-16T15:24:12;1.90;;;1.80;;
63018;SDS011;49105;46.046;10.760;2023-04-16T15:26:43;1.70;;;1.60;;
63018;SDS011;49105;46.046;10.760;2023-04-16T15:29:18;1.42;;;1.42;;
63018;SDS011;49105;46.046;10.760;2023-04-16T15:31:43;1.60;;;1.60;;
63018;SDS011;49105;46.046;10.760;2023-04-16T15:34:15;7.05;;;1.75;;
63018;SDS011;49105;46.046;10.760;2023-04-16T15:36:40;1.70;;;1.70;;
63018;SDS011;49105;46.046;10.760;2023-04-16T15:39:09;1.42;;;1.42;;
63018;SDS011;49105;46.046;10.760;2023-04-16T15:41:41;1.48;;;1.48;;
63018;SDS011;49105;46.046;10.760;2023-04-16T15:44:06;1.50;;;1.50;;
63018;SDS011;49105;46.046;10.760;2023-04-16T15:46:32;1.52;;;1.52;;
63018;SDS011;49105;46.046;10.760;2023-04-16T15:48:57;1.55;;;1.55;;